Time;durP1;ratioP1;P1;durP2;ratioP2;P2;SDS_P1;SDS_P2;PMS_P1;PMS_P2;Temp;Humidity;BMP_temperature;BMP_pressure;BME280_temperature;BME280_humidity;BME280_pressure;Samples;Min_cycle;Max_cycle;Signal;HPM_P1;HPM_P2
2023/02/01 00:01:29;;;;;;;19.93;3.23;;;;;;;;;;4966656;28;20833;-83
2023/02/01 00:03:54;;;;;;;9.90;2.77;;;;;;;;;;4972566;28;20233;-83
2023/02/01 00:06:20;;;;;;;11.67;3.23;;;;;;;;;;4954643;28;20604;-82
2023/02/01 00:08:50;;;;;;;9.57;2.87;;;;;;;;;;4970214;28;20241;-81
2023/02/01 00:11:16;;;;;;;10.63;3.47;;;;;;;;;;4984932;28;20313;-82
2023/02/01 00:13:41;;;;;;;10.83;3.50;;;;;;;;;;4997988;28;20214;-81
2023/02/01 00:16:11;;;;;;;10.30;3.03;;;;;;;;;;4974381;28;20218;-83
2023/02/01 00:18:39;;;;;;;9.53;2.87;;;;;;;;;;4979351;28;20210;-84
2023/02/01 00:21:05;;;;;;;10.43;2.63;;;;;;;;;;4956508;28;20213;-79
2023/02/01 00:23:34;;;;;;;10.43;3.00;;;;;;;;;;4966670;28;20232;-81
2023/02/01 00:26:01;;;;;;;10.80;3.37;;;;;;;;;;4967771;28;20245;-83
2023/02/01 00:28:29;;;;;;;8.97;2.53;;;;;;;;;;4963884;28;20218;-83
2023/02/01 00:31:02;;;;;;;10.73;3.50;;;;;;;;;;4979668;28;20284;-81
2023/02/01 00:33:28;;;;;;;13.03;3.50;;;;;;;;;;4960083;28;20234;-80
2023/02/01 00:35:58;;;;;;;10.13;2.93;;;;;;;;;;4962837;28;20231;-82
2023/02/01 00:38:26;;;;;;;8.83;3.10;;;;;;;;;;4959350;28;20225;-82
2023/02/01 00:40:52;;;;;;;10.00;3.37;;;;;;;;;;4927691;28;20254;-83
2023/02/01 00:43:18;;;;;;;12.67;3.37;;;;;;;;;;4976608;28;20240;-83
2023/02/01 00:45:45;;;;;;;10.83;3.30;;;;;;;;;;4958640;28;20266;-80
2023/02/01 00:48:11;;;;;;;8.73;3.47;;;;;;;;;;4960812;28;20284;-82
2023/02/01 00:50:41;;;;;;;10.53;3.43;;;;;;;;;;4944297;28;20707;-83
2023/02/01 00:53:07;;;;;;;14.37;3.37;;;;;;;;;;4942910;28;20896;-81
2023/02/01 00:55:32;;;;;;;11.30;3.20;;;;;;;;;;4957921;28;20238;-82
2023/02/01 00:57:58;;;;;;;12.17;3.23;;;;;;;;;;4976776;28;20221;-82
2023/02/01 01:00:23;;;;;;;17.20;3.47;;;;;;;;;;4962112;28;20225;-82
2023/02/01 01:02:51;;;;;;;7.83;2.90;;;;;;;;;;4972140;28;20677;-81
2023/02/01 01:05:19;;;;;;;12.07;3.23;;;;;;;;;;4963332;28;20230;-83
2023/02/01 01:07:47;;;;;;;12.90;3.50;;;;;;;;;;4982317;28;20257;-80
2023/02/01 01:10:12;;;;;;;13.13;3.67;;;;;;;;;;4961279;28;20210;-82
2023/02/01 01:12:38;;;;;;;10.40;3.40;;;;;;;;;;4927654;28;20234;-83
2023/02/01 01:15:04;;;;;;;13.67;3.10;;;;;;;;;;4969841;28;20230;-83
2023/02/01 01:17:31;;;;;;;12.57;3.47;;;;;;;;;;4945159;28;20221;-83
2023/02/01 01:19:56;;;;;;;12.50;3.30;;;;;;;;;;4944812;28;20229;-83
2023/02/01 01:22:22;;;;;;;17.30;3.77;;;;;;;;;;4963065;28;20225;-83
2023/02/01 01:24:50;;;;;;;12.10;3.63;;;;;;;;;;4960113;28;20276;-81
2023/02/01 01:27:22;;;;;;;11.93;3.37;;;;;;;;;;4958210;28;20221;-80
2023/02/01 01:29:50;;;;;;;13.83;3.93;;;;;;;;;;4962953;28;20321;-82
2023/02/01 01:32:18;;;;;;;13.63;3.83;;;;;;;;;;4974771;28;20218;-81
2023/02/01 01:34:43;;;;;;;18.47;3.83;;;;;;;;;;4957497;28;20234;-81
2023/02/01 01:37:09;;;;;;;12.73;3.73;;;;;;;;;;4957205;28;20218;-84
2023/02/01 01:39:34;;;;;;;14.63;3.80;;;;;;;;;;4956405;28;20222;-80
2023/02/01 01:42:03;;;;;;;12.27;3.50;;;;;;;;;;4956794;28;20225;-78
2023/02/01 01:44:57;;;;;;;13.53;3.70;;;;;;;;;;4973167;28;20257;-85
2023/02/01 01:47:27;;;;;;;13.53;3.03;;;;;;;;;;4973347;28;20705;-82
2023/02/01 01:49:55;;;;;;;12.60;3.30;;;;;;;;;;4959879;28;20234;-82
2023/02/01 01:52:20;;;;;;;12.33;3.80;;;;;;;;;;4972772;28;20213;-82
2023/02/01 01:54:49;;;;;;;13.03;3.17;;;;;;;;;;4963971;28;20241;-82
2023/02/01 01:57:22;;;;;;;7.57;2.97;;;;;;;;;;4956366;28;20234;-82
2023/02/01 01:59:50;;;;;;;14.07;3.53;;;;;;;;;;4990231;28;20241;-81
2023/02/01 02:02:15;;;;;;;10.37;3.67;;;;;;;;;;4955719;28;20922;-81
2023/02/01 02:04:43;;;;;;;12.43;3.90;;;;;;;;;;4959728;28;20290;-82
2023/02/01 02:07:11;;;;;;;14.37;3.47;;;;;;;;;;4958066;28;20221;-82
2023/02/01 02:09:37;;;;;;;10.97;3.50;;;;;;;;;;4962569;28;20276;-82
2023/02/01 02:12:03;;;;;;;12.87;3.40;;;;;;;;;;4922366;28;20594;-81
2023/02/01 02:14:31;;;;;;;10.77;3.57;;;;;;;;;;4943195;28;20218;-80
2023/02/01 02:17:05;;;;;;;8.20;3.10;;;;;;;;;;4957301;28;20687;-84
2023/02/01 02:20:04;;;;;;;15.60;3.27;;;;;;;;;;4976822;28;20234;-83
2023/02/01 02:22:50;;;;;;;10.90;3.40;;;;;;;;;;4940702;28;20257;-82
2023/02/01 02:25:22;;;;;;;19.07;3.90;;;;;;;;;;4972587;28;20230;-84
2023/02/01 02:28:12;;;;;;;10.57;3.23;;;;;;;;;;4970108;28;20229;-82
2023/02/01 02:30:55;;;;;;;8.83;3.27;;;;;;;;;;4971176;28;20723;-81
2023/02/01 02:33:30;;;;;;;13.70;3.60;;;;;;;;;;4969563;28;20229;-82
2023/02/01 02:36:05;;;;;;;7.37;2.50;;;;;;;;;;4994809;28;20256;-82
2023/02/01 02:38:46;;;;;;;11.47;3.10;;;;;;;;;;4973642;28;20234;-81
2023/02/01 02:47:47;;;;;;;9.97;3.20;;;;;;;;;;4971464;28;20221;-83
2023/02/01 03:04:20;;;;;;;9.47;3.10;;;;;;;;;;4949924;28;20290;-81
2023/02/01 03:06:48;;;;;;;13.03;3.30;;;;;;;;;;4948729;28;20235;-84
2023/02/01 03:09:30;;;;;;;7.07;2.90;;;;;;;;;;4954765;28;20234;-84
2023/02/01 03:14:47;;;;;;;11.33;3.23;;;;;;;;;;4980369;28;20243;-85
2023/02/01 03:17:14;;;;;;;9.20;3.17;;;;;;;;;;4970929;28;20715;-81
2023/02/01 03:19:47;;;;;;;13.73;3.70;;;;;;;;;;4977470;28;20226;-81
2023/02/01 03:22:14;;;;;;;13.90;3.77;;;;;;;;;;4966714;28;20221;-83
2023/02/01 03:24:51;;;;;;;11.67;3.00;;;;;;;;;;4967500;28;20226;-82
2023/02/01 03:27:30;;;;;;;10.93;3.37;;;;;;;;;;4951912;28;20228;-84
2023/02/01 03:30:12;;;;;;;16.20;3.13;;;;;;;;;;4962447;28;20941;-83
2023/02/01 03:32:58;;;;;;;10.63;3.17;;;;;;;;;;4982829;28;20305;-83
2023/02/01 03:36:02;;;;;;;10.43;2.97;;;;;;;;;;4983198;28;20226;-84
2023/02/01 03:38:37;;;;;;;12.47;3.23;;;;;;;;;;4992951;28;20227;-83
2023/02/01 03:41:14;;;;;;;8.87;3.10;;;;;;;;;;4995801;28;20228;-84
2023/02/01 03:43:46;;;;;;;11.83;3.70;;;;;;;;;;4964216;28;20228;-84
2023/02/01 03:46:13;;;;;;;15.27;3.47;;;;;;;;;;4968674;28;20218;-83
2023/02/01 03:48:38;;;;;;;8.77;2.47;;;;;;;;;;4965165;28;20310;-85
2023/02/01 03:51:04;;;;;;;8.07;3.00;;;;;;;;;;4961363;28;20249;-85
2023/02/01 03:53:30;;;;;;;10.00;2.50;;;;;;;;;;4964835;28;20234;-83
2023/02/01 03:55:55;;;;;;;12.40;3.00;;;;;;;;;;4965982;28;20315;-84
2023/02/01 03:58:24;;;;;;;12.77;3.53;;;;;;;;;;4964437;28;20222;-84
2023/02/01 04:00:58;;;;;;;10.97;3.10;;;;;;;;;;4950473;28;20218;-85
2023/02/01 04:03:29;;;;;;;8.70;3.67;;;;;;;;;;4951036;28;20218;-82
2023/02/01 04:05:56;;;;;;;9.57;3.10;;;;;;;;;;4963742;28;20257;-83
2023/02/01 04:08:25;;;;;;;13.83;3.40;;;;;;;;;;4946734;28;20222;-85
2023/02/01 04:10:53;;;;;;;9.60;3.17;;;;;;;;;;4964755;28;20291;-84
2023/02/01 04:13:18;;;;;;;15.17;3.60;;;;;;;;;;4977040;28;20222;-84
2023/02/01 04:15:50;;;;;;;9.57;3.00;;;;;;;;;;4959045;28;20230;-85
2023/02/01 04:18:18;;;;;;;8.20;2.67;;;;;;;;;;4962498;28;20271;-83
2023/02/01 04:20:50;;;;;;;8.50;3.20;;;;;;;;;;4976160;28;20258;-84
2023/02/01 04:23:18;;;;;;;8.77;3.03;;;;;;;;;;4959419;28;20218;-84
2023/02/01 04:25:44;;;;;;;10.37;3.00;;;;;;;;;;4957218;28;20703;-82
2023/02/01 04:28:14;;;;;;;13.20;2.87;;;;;;;;;;4971549;28;20218;-83
2023/02/01 04:30:47;;;;;;;7.27;3.00;;;;;;;;;;4973838;28;20761;-82
2023/02/01 04:33:13;;;;;;;9.73;2.97;;;;;;;;;;4974138;28;20230;-82
2023/02/01 04:35:39;;;;;;;8.60;3.90;;;;;;;;;;4966188;28;20316;-83
2023/02/01 04:38:07;;;;;;;11.87;3.40;;;;;;;;;;4978652;28;20221;-85
2023/02/01 04:40:37;;;;;;;7.50;2.60;;;;;;;;;;4977136;28;20230;-83
2023/02/01 04:43:06;;;;;;;10.97;3.10;;;;;;;;;;4939079;28;20237;-81
2023/02/01 04:45:36;;;;;;;8.93;2.80;;;;;;;;;;4958233;28;20253;-82
2023/02/01 04:48:07;;;;;;;12.80;3.43;;;;;;;;;;4972951;28;20228;-83
2023/02/01 04:50:35;;;;;;;9.80;3.00;;;;;;;;;;4957073;28;20218;-83
2023/02/01 04:53:03;;;;;;;13.53;2.83;;;;;;;;;;4959909;28;20213;-82
2023/02/01 04:55:28;;;;;;;10.53;3.10;;;;;;;;;;4957613;28;20700;-85
2023/02/01 04:57:56;;;;;;;8.20;2.83;;;;;;;;;;4941159;28;20237;-84
2023/02/01 05:00:21;;;;;;;12.00;2.77;;;;;;;;;;4957505;28;21139;-82
2023/02/01 05:02:49;;;;;;;5.97;2.50;;;;;;;;;;4951459;28;20225;-84
2023/02/01 05:05:15;;;;;;;6.53;2.47;;;;;;;;;;4948503;28;20214;-83
2023/02/01 05:07:43;;;;;;;6.50;2.00;;;;;;;;;;4955375;28;20229;-83
2023/02/01 05:10:09;;;;;;;10.47;2.73;;;;;;;;;;4970046;28;20221;-83
2023/02/01 05:15:21;;;;;;;5.13;2.07;;;;;;;;;;4957230;28;20230;-81
2023/02/01 05:17:46;;;;;;;6.57;2.60;;;;;;;;;;4968783;28;20756;-84
2023/02/01 05:20:12;;;;;;;5.87;2.10;;;;;;;;;;4981416;28;20222;-80
2023/02/01 05:22:38;;;;;;;6.90;2.57;;;;;;;;;;4966409;28;20282;-83
2023/02/01 05:25:03;;;;;;;8.17;2.87;;;;;;;;;;4979377;28;20222;-83
2023/02/01 05:27:30;;;;;;;10.30;3.00;;;;;;;;;;4977374;28;20225;-80
2023/02/01 05:29:58;;;;;;;11.57;2.67;;;;;;;;;;4966858;28;20646;-81
2023/02/01 05:32:26;;;;;;;9.30;2.77;;;;;;;;;;4961780;28;20210;-79
2023/02/01 05:34:51;;;;;;;10.27;3.20;;;;;;;;;;4961896;28;20259;-80
2023/02/01 05:37:17;;;;;;;9.27;3.07;;;;;;;;;;4958325;28;20218;-81
2023/02/01 05:39:45;;;;;;;7.97;2.77;;;;;;;;;;4967154;28;20222;-81
2023/02/01 05:42:12;;;;;;;6.53;3.20;;;;;;;;;;4964295;28;20214;-82
2023/02/01 05:44:40;;;;;;;5.70;2.07;;;;;;;;;;4944180;28;20233;-80
2023/02/01 05:47:06;;;;;;;5.53;2.27;;;;;;;;;;4979848;28;21052;-81
2023/02/01 05:49:31;;;;;;;8.60;2.33;;;;;;;;;;4979818;28;20229;-84
2023/02/01 05:51:57;;;;;;;9.60;2.93;;;;;;;;;;4959817;28;20230;-82
2023/02/01 05:54:25;;;;;;;5.07;1.80;;;;;;;;;;4958001;28;20230;-82
2023/02/01 05:56:51;;;;;;;5.37;2.30;;;;;;;;;;4982838;28;20218;-80
2023/02/01 05:59:16;;;;;;;10.13;2.43;;;;;;;;;;4962504;28;20228;-86
2023/02/01 06:01:42;;;;;;;4.53;2.20;;;;;;;;;;4959605;28;20231;-84
2023/02/01 06:04:10;;;;;;;0.10;0.10;;;;;;;;;;4975376;28;20222;-81
2023/02/01 06:06:36;;;;;;;0.10;0.10;;;;;;;;;;4977572;28;20657;-81
2023/02/01 06:09:05;;;;;;;0.10;0.10;;;;;;;;;;4963097;28;20246;-85
2023/02/01 06:11:30;;;;;;;0.10;0.10;;;;;;;;;;4946174;28;20301;-83
2023/02/01 06:13:56;;;;;;;0.00;0.00;;;;;;;;;;4974753;28;20244;-84
2023/02/01 06:16:22;;;;;;;0.13;0.13;;;;;;;;;;4979064;28;20222;-81
2023/02/01 06:18:48;;;;;;;0.10;0.10;;;;;;;;;;4975228;28;20761;-85
2023/02/01 06:21:15;;;;;;;0.50;0.50;;;;;;;;;;4977693;28;20211;-84
2023/02/01 06:23:41;;;;;;;0.10;0.10;;;;;;;;;;4947747;28;20226;-82
2023/02/01 06:26:07;;;;;;;0.10;0.10;;;;;;;;;;4973348;28;20221;-83
2023/02/01 06:28:33;;;;;;;1.20;1.10;;;;;;;;;;4958880;28;20230;-85
2023/02/01 06:31:06;;;;;;;0.10;0.10;;;;;;;;;;4959430;28;20300;-82
2023/02/01 06:33:35;;;;;;;0.10;0.10;;;;;;;;;;4961764;28;20325;-82
2023/02/01 06:36:04;;;;;;;0.10;0.10;;;;;;;;;;4944524;28;20228;-84
2023/02/01 06:38:34;;;;;;;0.10;0.10;;;;;;;;;;4965713;28;20218;-83
2023/02/01 06:41:00;;;;;;;0.10;0.10;;;;;;;;;;4966095;28;20218;-82
2023/02/01 06:43:26;;;;;;;0.33;0.33;;;;;;;;;;4961226;28;20300;-81
2023/02/01 06:45:51;;;;;;;0.33;0.33;;;;;;;;;;4980484;28;20236;-80
2023/02/01 06:48:19;;;;;;;0.10;0.10;;;;;;;;;;4966384;28;20630;-82
2023/02/01 06:50:45;;;;;;;0.10;0.10;;;;;;;;;;4964446;28;20265;-81
2023/02/01 06:53:13;;;;;;;0.10;0.10;;;;;;;;;;4961687;28;20950;-84
2023/02/01 06:55:38;;;;;;;0.10;0.10;;;;;;;;;;4962040;28;20225;-84
2023/02/01 06:58:06;;;;;;;0.10;0.10;;;;;;;;;;4948655;28;20296;-83
2023/02/01 07:00:34;;;;;;;0.30;0.30;;;;;;;;;;4989462;28;20308;-83
2023/02/01 07:03:00;;;;;;;2.10;1.03;;;;;;;;;;4969367;28;20269;-83
2023/02/01 07:05:26;;;;;;;0.17;0.17;;;;;;;;;;4965697;28;20325;-83
2023/02/01 07:07:51;;;;;;;0.10;0.10;;;;;;;;;;4954570;28;20278;-82
2023/02/01 07:10:17;;;;;;;0.10;0.10;;;;;;;;;;4962889;28;20223;-82
2023/02/01 07:12:45;;;;;;;0.23;0.23;;;;;;;;;;4983150;28;20249;-81
2023/02/01 07:15:10;;;;;;;0.10;0.10;;;;;;;;;;4984239;28;20717;-82
2023/02/01 07:17:36;;;;;;;0.10;0.10;;;;;;;;;;4973649;28;20238;-82
2023/02/01 07:20:04;;;;;;;1.30;1.20;;;;;;;;;;4968831;28;20222;-83
2023/02/01 07:22:32;;;;;;;0.10;0.10;;;;;;;;;;4974799;28;20699;-82
2023/02/01 07:24:57;;;;;;;1.07;1.03;;;;;;;;;;4984131;28;20226;-81
2023/02/01 07:27:25;;;;;;;0.20;0.20;;;;;;;;;;4965186;28;20250;-80
2023/02/01 07:29:51;;;;;;;0.20;0.20;;;;;;;;;;4985212;28;20848;-80
2023/02/01 07:32:17;;;;;;;0.20;0.20;;;;;;;;;;4985158;28;20241;-81
2023/02/01 07:34:44;;;;;;;0.43;0.43;;;;;;;;;;4987522;28;20294;-80
2023/02/01 07:37:10;;;;;;;0.20;0.20;;;;;;;;;;4972555;28;20221;-81
2023/02/01 07:39:38;;;;;;;0.53;0.53;;;;;;;;;;4964522;28;20229;-80
2023/02/01 07:42:03;;;;;;;0.20;0.20;;;;;;;;;;4969600;28;20233;-82
2023/02/01 07:44:29;;;;;;;0.20;0.20;;;;;;;;;;4991089;28;20221;-83
2023/02/01 07:46:54;;;;;;;0.10;0.10;;;;;;;;;;4967761;28;20221;-79
2023/02/01 07:49:22;;;;;;;0.10;0.10;;;;;;;;;;4990558;28;20221;-82
2023/02/01 07:51:48;;;;;;;0.10;0.10;;;;;;;;;;4968608;28;20309;-80
2023/02/01 07:54:13;;;;;;;0.87;0.87;;;;;;;;;;4991579;28;20249;-84
2023/02/01 07:56:43;;;;;;;0.10;0.10;;;;;;;;;;4984002;28;20576;-81
2023/02/01 07:59:10;;;;;;;2.00;0.97;;;;;;;;;;4985283;28;20229;-83
2023/02/01 08:01:36;;;;;;;0.27;0.27;;;;;;;;;;4971868;28;20309;-83
2023/02/01 08:04:02;;;;;;;0.10;0.10;;;;;;;;;;4968119;28;20288;-80
2023/02/01 08:06:29;;;;;;;0.10;0.10;;;;;;;;;;4950420;29;20229;-82
2023/02/01 08:08:57;;;;;;;0.10;0.10;;;;;;;;;;4961726;28;20229;-85
2023/02/01 08:11:23;;;;;;;2.70;1.70;;;;;;;;;;4948086;28;22162;-82
2023/02/01 08:13:48;;;;;;;0.10;0.10;;;;;;;;;;4962954;28;20238;-81
2023/02/01 08:16:14;;;;;;;0.10;0.10;;;;;;;;;;4960597;28;20223;-83
2023/02/01 08:18:41;;;;;;;0.40;0.40;;;;;;;;;;4950808;28;20257;-80
2023/02/01 08:21:07;;;;;;;0.10;0.10;;;;;;;;;;4958261;28;20648;-82
2023/02/01 08:23:34;;;;;;;0.20;0.20;;;;;;;;;;4977739;28;20227;-82
2023/02/01 08:26:15;;;;;;;0.10;0.10;;;;;;;;;;4983006;28;20290;-80
2023/02/01 08:28:42;;;;;;;0.20;0.20;;;;;;;;;;4983461;28;20598;-83
2023/02/01 08:31:08;;;;;;;0.10;0.10;;;;;;;;;;4962048;28;20215;-85
2023/02/01 08:33:39;;;;;;;0.30;0.30;;;;;;;;;;4964981;28;20309;-83
2023/02/01 08:36:05;;;;;;;0.70;0.70;;;;;;;;;;4964184;28;20232;-81
2023/02/01 08:38:30;;;;;;;0.10;0.10;;;;;;;;;;4945692;29;20298;-81
2023/02/01 08:40:56;;;;;;;0.10;0.10;;;;;;;;;;4983613;28;20327;-82
2023/02/01 08:43:21;;;;;;;0.37;0.37;;;;;;;;;;4988765;28;20221;-82
2023/02/01 08:45:50;;;;;;;0.10;0.10;;;;;;;;;;4983223;28;20240;-82
2023/02/01 08:48:18;;;;;;;0.10;0.10;;;;;;;;;;4964911;28;20285;-83
2023/02/01 08:50:44;;;;;;;0.37;0.37;;;;;;;;;;4956398;28;20253;-84
2023/02/01 08:53:09;;;;;;;0.10;0.10;;;;;;;;;;4967655;28;20225;-81
2023/02/01 08:55:37;;;;;;;0.20;0.20;;;;;;;;;;4948144;28;20241;-84
2023/02/01 08:58:02;;;;;;;0.10;0.10;;;;;;;;;;4933991;28;20215;-81
2023/02/01 09:00:28;;;;;;;0.30;0.30;;;;;;;;;;4968268;28;20236;-81
2023/02/01 09:03:00;;;;;;;0.47;0.47;;;;;;;;;;4993020;28;20337;-82
2023/02/01 09:05:28;;;;;;;0.87;0.87;;;;;;;;;;4958610;28;20222;-82
2023/02/01 09:07:54;;;;;;;0.10;0.10;;;;;;;;;;4967051;28;20222;-82
2023/02/01 09:10:19;;;;;;;0.10;0.10;;;;;;;;;;4968434;28;20272;-85
2023/02/01 09:12:45;;;;;;;0.30;0.30;;;;;;;;;;4968070;28;20236;-83
2023/02/01 09:15:10;;;;;;;12.97;2.37;;;;;;;;;;4963240;28;20612;-80
2023/02/01 09:17:36;;;;;;;8.90;2.43;;;;;;;;;;4981709;28;20703;-84
2023/02/01 09:20:04;;;;;;;10.40;2.90;;;;;;;;;;4963308;28;20218;-80
2023/02/01 09:22:30;;;;;;;9.20;2.90;;;;;;;;;;4978950;28;20241;-81
2023/02/01 09:24:58;;;;;;;11.17;3.27;;;;;;;;;;4966768;28;20256;-83
2023/02/01 09:27:23;;;;;;;10.90;3.00;;;;;;;;;;4963971;28;20222;-82
2023/02/01 09:29:52;;;;;;;13.57;2.80;;;;;;;;;;4932380;28;20222;-82
2023/02/01 09:32:21;;;;;;;4.87;2.20;;;;;;;;;;4998121;28;20745;-81
2023/02/01 09:34:46;;;;;;;9.20;2.27;;;;;;;;;;4950377;28;20249;-82
2023/02/01 09:37:14;;;;;;;12.77;3.00;;;;;;;;;;4964411;28;21052;-81
2023/02/01 09:39:42;;;;;;;9.03;2.60;;;;;;;;;;4963916;28;20236;-82
2023/02/01 09:42:18;;;;;;;11.93;3.23;;;;;;;;;;4965368;28;20697;-85
2023/02/01 09:44:49;;;;;;;9.93;2.87;;;;;;;;;;4962428;28;20233;-83
2023/02/01 09:47:17;;;;;;;10.37;2.43;;;;;;;;;;4983183;28;20229;-84
2023/02/01 09:49:59;;;;;;;6.17;2.27;;;;;;;;;;4952687;28;20763;-84
2023/02/01 09:52:33;;;;;;;9.80;2.53;;;;;;;;;;4947707;28;20251;-84
2023/02/01 09:55:02;;;;;;;6.80;2.77;;;;;;;;;;4963122;28;20317;-83
2023/02/01 09:57:41;;;;;;;8.93;2.67;;;;;;;;;;4962145;28;20956;-81
2023/02/01 10:00:16;;;;;;;8.40;2.50;;;;;;;;;;4964399;28;20239;-83
2023/02/01 10:02:44;;;;;;;9.93;3.10;;;;;;;;;;4979745;28;20285;-85
2023/02/01 10:05:19;;;;;;;6.43;2.40;;;;;;;;;;4977485;28;20230;-84
2023/02/01 10:07:55;;;;;;;9.87;2.87;;;;;;;;;;4963384;28;20229;-82
2023/02/01 10:10:30;;;;;;;9.23;2.57;;;;;;;;;;4978423;28;20229;-83
2023/02/01 10:13:19;;;;;;;9.87;3.10;;;;;;;;;;4966556;28;20248;-86
2023/02/01 10:16:12;;;;;;;9.87;2.63;;;;;;;;;;4977516;28;20242;-85
2023/02/01 10:19:12;;;;;;;11.60;3.13;;;;;;;;;;4968055;28;20298;-84
2023/02/01 10:22:04;;;;;;;10.83;2.67;;;;;;;;;;4977619;28;20230;-80
2023/02/01 10:24:43;;;;;;;6.40;2.57;;;;;;;;;;4978131;28;20236;-81
2023/02/01 10:27:21;;;;;;;7.43;2.87;;;;;;;;;;4978396;28;20226;-79
2023/02/01 10:29:58;;;;;;;8.27;2.80;;;;;;;;;;4959997;28;20234;-83
2023/02/01 10:32:32;;;;;;;10.33;2.97;;;;;;;;;;4956123;28;20218;-82
2023/02/01 10:34:59;;;;;;;6.93;2.40;;;;;;;;;;4959853;28;20337;-84
2023/02/01 10:37:34;;;;;;;6.97;2.20;;;;;;;;;;4977955;28;20240;-83
2023/02/01 10:40:21;;;;;;;8.93;3.10;;;;;;;;;;4974511;28;20225;-81
2023/02/01 10:42:48;;;;;;;10.83;2.83;;;;;;;;;;4964846;28;20244;-82
2023/02/01 10:45:25;;;;;;;9.27;2.50;;;;;;;;;;4984887;28;20230;-82
2023/02/01 10:47:51;;;;;;;9.67;2.80;;;;;;;;;;4966241;28;20327;-84
2023/02/01 10:50:19;;;;;;;7.10;2.60;;;;;;;;;;4960428;28;20593;-83
2023/02/01 10:53:04;;;;;;;7.77;2.93;;;;;;;;;;4979065;28;20236;-82
2023/02/01 10:55:46;;;;;;;7.33;2.63;;;;;;;;;;4975002;28;20230;-84
2023/02/01 10:58:26;;;;;;;13.07;2.90;;;;;;;;;;4966874;28;20222;-84
2023/02/01 11:00:56;;;;;;;12.20;2.87;;;;;;;;;;4974629;28;20312;-85
2023/02/01 11:03:33;;;;;;;8.27;2.70;;;;;;;;;;4959447;28;20273;-84
2023/02/01 11:06:24;;;;;;;9.23;2.73;;;;;;;;;;4973558;28;20217;-83
2023/02/01 11:08:57;;;;;;;8.03;2.57;;;;;;;;;;4968159;28;20241;-82
2023/02/01 11:11:23;;;;;;;8.30;2.87;;;;;;;;;;4969602;28;20234;-85
2023/02/01 11:14:16;;;;;;;8.10;2.60;;;;;;;;;;4973473;28;20252;-84
2023/02/01 11:16:42;;;;;;;9.20;2.93;;;;;;;;;;4956516;28;20241;-84
2023/02/01 11:19:07;;;;;;;7.33;2.73;;;;;;;;;;4971619;28;20226;-84
2023/02/01 11:21:35;;;;;;;6.23;3.07;;;;;;;;;;4965408;28;20237;-81
2023/02/01 11:24:05;;;;;;;9.87;3.40;;;;;;;;;;4963074;28;20222;-86
2023/02/01 11:26:32;;;;;;;9.33;2.23;;;;;;;;;;4946404;28;20226;-82
2023/02/01 11:28:59;;;;;;;12.77;3.13;;;;;;;;;;4963866;28;20229;-81
2023/02/01 11:31:27;;;;;;;8.97;2.60;;;;;;;;;;4957379;28;20262;-83
2023/02/01 11:34:04;;;;;;;8.30;2.73;;;;;;;;;;4963035;28;20231;-83
2023/02/01 11:36:31;;;;;;;6.20;2.13;;;;;;;;;;4977690;28;20691;-85
2023/02/01 11:39:12;;;;;;;4.10;1.70;;;;;;;;;;4971056;28;20275;-83
2023/02/01 11:42:16;;;;;;;5.53;1.50;;;;;;;;;;4975281;28;20226;-84
2023/02/01 11:44:47;;;;;;;1.63;0.93;;;;;;;;;;4958597;28;20295;-82
2023/02/01 11:47:38;;;;;;;4.27;2.20;;;;;;;;;;4961268;28;20219;-79
2023/02/01 11:50:12;;;;;;;8.43;2.90;;;;;;;;;;4947734;28;20219;-83
2023/02/01 11:52:54;;;;;;;7.70;2.50;;;;;;;;;;4962606;28;20217;-82
2023/02/01 11:56:14;;;;;;;;;;;;;;;;;;;;;
2023/02/01 11:58:55;;;;;;;8.33;1.83;;;;;;;;;;4964943;28;20237;-80
2023/02/01 12:01:50;;;;;;;11.30;2.47;;;;;;;;;;4991786;28;20743;-82
2023/02/01 12:04:44;;;;;;;5.57;2.13;;;;;;;;;;4979439;28;20214;-81
2023/02/01 12:07:16;;;;;;;6.90;2.80;;;;;;;;;;4952831;28;20249;-82
2023/02/01 12:10:08;;;;;;;9.80;2.70;;;;;;;;;;4980510;28;20238;-84
2023/02/01 12:12:50;;;;;;;8.80;2.40;;;;;;;;;;4977400;28;20316;-82
2023/02/01 12:15:29;;;;;;;5.67;1.97;;;;;;;;;;5004540;28;20300;-84
2023/02/01 12:18:12;;;;;;;6.90;2.37;;;;;;;;;;4996309;28;20310;-82
2023/02/01 12:20:56;;;;;;;12.70;2.70;;;;;;;;;;4960901;28;20229;-85
2023/02/01 12:23:48;;;;;;;7.67;2.73;;;;;;;;;;4973028;28;20214;-82
2023/02/01 12:26:54;;;;;;;7.30;2.20;;;;;;;;;;5000775;28;20219;-80
2023/02/01 12:29:35;;;;;;;4.03;2.03;;;;;;;;;;4968564;28;20249;-80
2023/02/01 12:32:13;;;;;;;4.37;1.50;;;;;;;;;;4987948;28;20248;-82
2023/02/01 12:34:57;;;;;;;3.33;1.50;;;;;;;;;;4986473;28;20314;-83
2023/02/01 12:37:55;;;;;;;5.17;2.17;;;;;;;;;;4992753;28;20271;-79
2023/02/01 12:40:42;;;;;;;3.40;1.50;;;;;;;;;;5003200;28;20285;-80
2023/02/01 12:43:21;;;;;;;11.87;7.00;;;;;;;;;;4991849;28;20214;-82
2023/02/01 12:46:01;;;;;;;1.30;1.07;;;;;;;;;;4975442;28;20244;-82
2023/02/01 12:48:40;;;;;;;2.87;1.27;;;;;;;;;;4972757;28;20257;-83
2023/02/01 12:51:15;;;;;;;9.57;4.60;;;;;;;;;;4970334;28;20228;-80
2023/02/01 12:54:16;;;;;;;4.77;2.80;;;;;;;;;;4962712;28;20233;-82
2023/02/01 12:57:05;;;;;;;3.70;1.87;;;;;;;;;;4958853;28;20393;-81
2023/02/01 12:59:50;;;;;;;3.03;1.47;;;;;;;;;;4970789;28;20304;-81
2023/02/01 13:02:38;;;;;;;;;;;;;;;;;;;;;
2023/02/01 13:05:20;;;;;;;3.17;1.63;;;;;;;;;;4973213;28;20226;-79
2023/02/01 13:08:25;;;;;;;5.10;3.03;;;;;;;;;;4976334;28;20257;-80
2023/02/01 13:10:59;;;;;;;0.10;0.10;;;;;;;;;;4959093;28;20236;-82
2023/02/01 13:13:54;;;;;;;0.10;0.10;;;;;;;;;;4959873;28;20222;-79
2023/02/01 13:16:28;;;;;;;0.10;0.10;;;;;;;;;;4969570;28;20290;-80
2023/02/01 13:19:26;;;;;;;0.10;0.10;;;;;;;;;;4946112;28;20262;-79
2023/02/01 13:22:01;;;;;;;0.10;0.10;;;;;;;;;;4983763;28;20236;-80
2023/02/01 13:24:49;;;;;;;0.10;0.10;;;;;;;;;;4970792;28;20639;-80
2023/02/01 13:27:18;;;;;;;0.20;0.20;;;;;;;;;;4961698;28;20221;-81
2023/02/01 13:30:07;;;;;;;0.10;0.10;;;;;;;;;;4964400;28;20248;-81
2023/02/01 13:33:01;;;;;;;0.10;0.10;;;;;;;;;;4981947;28;20229;-81
2023/02/01 13:35:38;;;;;;;0.10;0.10;;;;;;;;;;4959549;28;20229;-80
2023/02/01 13:38:47;;;;;;;0.10;0.10;;;;;;;;;;4978152;28;20279;-81
2023/02/01 13:41:52;;;;;;;0.17;0.17;;;;;;;;;;4973450;28;20218;-79
2023/02/01 13:44:29;;;;;;;0.10;0.10;;;;;;;;;;4984142;28;20249;-80
2023/02/01 13:47:01;;;;;;;0.10;0.10;;;;;;;;;;4968629;28;20230;-79
2023/02/01 13:49:31;;;;;;;0.10;0.10;;;;;;;;;;4976235;28;20222;-79
2023/02/01 13:51:58;;;;;;;0.10;0.10;;;;;;;;;;4935119;28;20230;-82
2023/02/01 13:54:30;;;;;;;0.10;0.10;;;;;;;;;;4975902;28;20309;-80
2023/02/01 13:56:58;;;;;;;0.10;0.10;;;;;;;;;;4982160;28;20297;-80
2023/02/01 13:59:39;;;;;;;0.10;0.10;;;;;;;;;;4958468;28;20241;-82
2023/02/01 14:02:38;;;;;;;0.10;0.10;;;;;;;;;;4981275;28;20308;-80
2023/02/01 14:05:10;;;;;;;0.10;0.10;;;;;;;;;;4976241;28;20234;-84
2023/02/01 14:07:36;;;;;;;0.10;0.10;;;;;;;;;;4986634;28;20236;-80
2023/02/01 14:10:58;;;;;;;0.20;0.20;;;;;;;;;;4940567;28;20230;-80
2023/02/01 14:13:39;;;;;;;0.10;0.10;;;;;;;;;;4965471;28;20238;-82
2023/02/01 14:16:06;;;;;;;0.10;0.10;;;;;;;;;;4937244;28;20743;-81
2023/02/01 14:18:44;;;;;;;0.20;0.20;;;;;;;;;;4973604;28;20329;-82
2023/02/01 14:21:30;;;;;;;0.10;0.10;;;;;;;;;;4982451;28;20222;-81
2023/02/01 14:24:01;;;;;;;0.10;0.10;;;;;;;;;;4975489;28;20222;-83
2023/02/01 14:26:45;;;;;;;0.13;0.13;;;;;;;;;;4984719;28;20222;-81
2023/02/01 14:29:16;;;;;;;0.30;0.30;;;;;;;;;;4980255;28;20284;-86
2023/02/01 14:32:03;;;;;;;0.10;0.10;;;;;;;;;;4973441;28;20236;-84
2023/02/01 14:34:54;;;;;;;0.10;0.10;;;;;;;;;;4987908;28;20234;-82
2023/02/01 14:37:20;;;;;;;0.13;0.13;;;;;;;;;;4964313;28;20245;-81
2023/02/01 14:39:46;;;;;;;0.10;0.10;;;;;;;;;;4989392;28;20296;-80
2023/02/01 14:42:48;;;;;;;0.10;0.10;;;;;;;;;;4977807;28;20231;-81
2023/02/01 14:45:18;;;;;;;0.10;0.10;;;;;;;;;;4994741;28;20272;-82
2023/02/01 14:48:09;;;;;;;0.10;0.10;;;;;;;;;;4998061;28;20234;-80
2023/02/01 14:50:40;;;;;;;0.10;0.10;;;;;;;;;;4998550;28;20237;-84
2023/02/01 14:53:14;;;;;;;0.63;0.63;;;;;;;;;;4981180;28;20591;-82
2023/02/01 14:56:08;;;;;;;0.83;0.83;;;;;;;;;;4989774;28;20722;-81
2023/02/01 14:58:58;;;;;;;1.93;1.83;;;;;;;;;;4993774;28;20233;-82
2023/02/01 15:01:31;;;;;;;0.87;0.87;;;;;;;;;;4977460;28;20217;-83
2023/02/01 15:04:11;;;;;;;0.40;0.40;;;;;;;;;;4952422;28;20230;-82
2023/02/01 15:06:37;;;;;;;0.10;0.10;;;;;;;;;;4954037;28;20277;-81
2023/02/01 15:09:10;;;;;;;0.10;0.10;;;;;;;;;;4981766;28;20668;-81
2023/02/01 15:11:59;;;;;;;0.60;0.60;;;;;;;;;;4970031;28;20244;-81
2023/02/01 15:14:39;;;;;;;0.20;0.20;;;;;;;;;;4978671;28;20248;-83
2023/02/01 15:17:25;;;;;;;0.63;0.63;;;;;;;;;;4967844;28;20275;-82
2023/02/01 15:19:57;;;;;;;0.10;0.10;;;;;;;;;;4952947;28;20241;-81
2023/02/01 15:22:24;;;;;;;0.10;0.10;;;;;;;;;;4981362;28;20257;-81
2023/02/01 15:24:56;;;;;;;0.10;0.10;;;;;;;;;;4977803;28;20237;-80
2023/02/01 15:27:22;;;;;;;0.10;0.10;;;;;;;;;;4967018;28;20305;-80
2023/02/01 15:29:48;;;;;;;0.77;0.77;;;;;;;;;;4959819;28;20232;-80
2023/02/01 15:32:30;;;;;;;0.10;0.10;;;;;;;;;;5002244;28;20305;-82
2023/02/01 15:34:56;;;;;;;0.20;0.20;;;;;;;;;;4980728;28;20248;-82
2023/02/01 15:37:24;;;;;;;0.30;0.30;;;;;;;;;;4951702;28;20226;-82
2023/02/01 15:40:21;;;;;;;0.30;0.30;;;;;;;;;;4949971;28;20232;-80